Time;durP1;ratioP1;P1;durP2;ratioP2;P2;SDS_P1;SDS_P2;PMS_P1;PMS_P2;Temp;Humidity;BMP_temperature;BMP_pressure;BME280_temperature;BME280_humidity;BME280_pressure;Samples;Min_cycle;Max_cycle;Signal;HPM_P1;HPM_P2
2023/11/30 00:01:39;;;;;;;5.87;4.90;;;3.40;99.90;;;;;;5015713;28;20172;-69
2023/11/30 00:04:05;;;;;;;6.10;5.50;;;3.30;99.90;;;;;;5015667;28;20180;-69
2023/11/30 00:06:37;;;;;;;6.70;6.00;;;3.30;99.90;;;;;;5015537;28;20183;-68
2023/11/30 00:09:03;;;;;;;5.43;4.87;;;3.40;99.90;;;;;;5015523;28;20222;-69
2023/11/30 00:11:28;;;;;;;4.90;4.40;;;3.30;99.90;;;;;;5015328;28;20462;-68
2023/11/30 00:13:54;;;;;;;7.23;5.00;;;3.30;99.90;;;;;;5015440;28;20472;-69
2023/11/30 00:16:19;;;;;;;6.60;5.10;;;3.40;99.90;;;;;;5015635;28;20263;-69
2023/11/30 00:18:45;;;;;;;5.93;5.17;;;3.40;99.90;;;;;;5015288;28;20184;-69
2023/11/30 00:21:10;;;;;;;5.53;4.73;;;3.30;99.90;;;;;;5015270;28;20187;-68
2023/11/30 00:23:36;;;;;;;7.00;6.30;;;3.30;99.90;;;;;;5015574;28;20259;-69
2023/11/30 00:26:02;;;;;;;6.57;5.10;;;3.30;99.90;;;;;;5015295;28;20202;-69
2023/11/30 00:28:27;;;;;;;7.10;5.47;;;3.30;99.90;;;;;;5015947;28;20510;-69
2023/11/30 00:30:53;;;;;;;5.10;4.60;;;3.30;99.90;;;;;;5015011;28;20203;-69
2023/11/30 00:33:18;;;;;;;5.83;5.23;;;3.40;99.90;;;;;;5015002;28;20204;-70
2023/11/30 00:35:44;;;;;;;5.00;4.50;;;3.30;99.90;;;;;;5015178;28;20529;-69
2023/11/30 00:38:09;;;;;;;6.57;5.90;;;3.30;99.90;;;;;;5014986;28;20263;-69
2023/11/30 00:40:37;;;;;;;5.60;4.80;;;3.30;99.90;;;;;;5014896;28;20200;-69
2023/11/30 00:43:03;;;;;;;7.70;5.90;;;3.40;99.90;;;;;;5014554;28;20179;-69
2023/11/30 00:45:29;;;;;;;6.77;6.00;;;3.30;99.90;;;;;;5014730;28;20940;-69
2023/11/30 00:47:54;;;;;;;5.13;4.63;;;3.30;99.90;;;;;;5015072;28;20510;-69
2023/11/30 00:50:21;;;;;;;5.60;5.10;;;3.40;99.90;;;;;;5014742;28;20188;-70
2023/11/30 00:52:47;;;;;;;6.03;5.40;;;3.40;99.90;;;;;;5014679;28;20204;-70
2023/11/30 00:55:13;;;;;;;6.67;5.73;;;3.50;99.90;;;;;;5015048;28;20414;-69
2023/11/30 00:57:38;;;;;;;7.13;5.30;;;3.50;99.90;;;;;;5015107;28;20398;-69
2023/11/30 01:00:05;;;;;;;6.80;5.60;;;3.50;99.90;;;;;;5014826;28;20431;-69
2023/11/30 01:02:31;;;;;;;6.97;5.70;;;3.40;99.90;;;;;;5014681;28;20168;-69
2023/11/30 01:04:57;;;;;;;5.90;5.40;;;3.50;99.90;;;;;;5014381;28;20831;-69
2023/11/30 01:07:23;;;;;;;6.47;5.57;;;3.50;99.90;;;;;;5014765;28;20403;-69
2023/11/30 01:09:49;;;;;;;6.20;5.63;;;3.40;99.90;;;;;;5014345;28;20188;-67
2023/11/30 01:12:15;;;;;;;9.80;7.90;;;3.40;99.90;;;;;;5014719;28;20454;-69
2023/11/30 01:14:41;;;;;;;6.00;5.40;;;3.40;99.90;;;;;;5014804;28;20160;-70
2023/11/30 01:17:07;;;;;;;6.13;5.53;;;3.40;99.90;;;;;;5014531;28;20160;-69
2023/11/30 01:19:33;;;;;;;6.70;5.57;;;3.40;99.90;;;;;;5014454;28;20481;-69
2023/11/30 01:21:59;;;;;;;8.13;6.57;;;3.40;99.90;;;;;;5014153;28;20893;-69
2023/11/30 01:24:24;;;;;;;6.13;5.10;;;3.30;99.90;;;;;;5014521;28;20639;-68
2023/11/30 01:26:50;;;;;;;6.10;5.50;;;3.10;99.90;;;;;;5013994;28;20168;-68
2023/11/30 01:29:15;;;;;;;6.23;5.70;;;3.20;99.90;;;;;;5013605;28;20184;-69
2023/11/30 01:31:41;;;;;;;7.90;7.13;;;3.20;99.90;;;;;;5014285;28;20552;-69
2023/11/30 01:34:07;;;;;;;7.77;5.80;;;3.00;99.90;;;;;;5013444;28;20180;-69
2023/11/30 01:36:32;;;;;;;7.10;6.17;;;3.00;99.90;;;;;;5013930;28;20167;-69
2023/11/30 01:38:58;;;;;;;7.30;6.63;;;3.10;99.90;;;;;;5013919;28;20164;-69
2023/11/30 01:41:23;;;;;;;7.40;6.57;;;3.10;99.90;;;;;;5013851;28;20191;-69
2023/11/30 01:43:49;;;;;;;6.70;6.07;;;3.10;99.90;;;;;;5014117;28;20255;-68
2023/11/30 01:46:14;;;;;;;7.60;6.90;;;3.10;99.90;;;;;;5014348;28;20176;-69
2023/11/30 01:48:41;;;;;;;6.90;6.20;;;3.10;99.90;;;;;;5014000;28;20176;-69
2023/11/30 01:51:09;;;;;;;7.93;6.13;;;3.10;99.90;;;;;;5013631;28;20280;-69
2023/11/30 01:53:39;;;;;;;7.10;6.30;;;3.10;99.90;;;;;;5013532;28;20878;-68
2023/11/30 01:56:06;;;;;;;7.10;5.57;;;3.20;99.90;;;;;;5012308;28;20774;-69
2023/11/30 01:58:32;;;;;;;6.20;5.60;;;3.20;99.90;;;;;;5013854;28;20415;-69
2023/11/30 02:00:58;;;;;;;6.13;5.60;;;3.20;99.90;;;;;;5013216;28;20794;-68
2023/11/30 02:03:24;;;;;;;6.83;6.13;;;3.20;99.90;;;;;;5013795;28;20222;-69
2023/11/30 02:05:51;;;;;;;6.97;5.63;;;3.20;99.90;;;;;;5013667;28;20824;-70
2023/11/30 02:08:17;;;;;;;5.87;5.27;;;3.20;99.90;;;;;;5013443;28;20406;-68
2023/11/30 02:10:43;;;;;;;6.60;6.00;;;3.20;99.90;;;;;;5013537;28;20796;-69
2023/11/30 02:13:08;;;;;;;10.63;6.20;;;3.20;99.90;;;;;;5013604;28;20223;-69
2023/11/30 02:15:34;;;;;;;6.93;6.23;;;3.10;99.90;;;;;;5013415;28;20453;-69
2023/11/30 02:18:00;;;;;;;6.33;5.73;;;3.00;99.90;;;;;;5013522;28;20539;-69
2023/11/30 02:20:26;;;;;;;6.20;5.60;;;3.00;99.90;;;;;;5013199;28;20188;-68
2023/11/30 02:22:51;;;;;;;6.40;5.80;;;3.00;99.90;;;;;;5013519;28;20165;-68
2023/11/30 02:25:17;;;;;;;6.57;5.87;;;2.90;99.90;;;;;;5013413;28;20314;-69
2023/11/30 02:27:42;;;;;;;6.50;5.80;;;2.80;99.90;;;;;;5013970;28;20528;-68
2023/11/30 02:30:08;;;;;;;6.80;6.10;;;2.70;99.90;;;;;;5013135;28;20574;-68
2023/11/30 02:32:34;;;;;;;6.63;5.93;;;2.60;99.90;;;;;;5013019;28;20202;-68
2023/11/30 02:35:01;;;;;;;6.60;5.37;;;2.50;99.90;;;;;;5013242;28;20410;-69
2023/11/30 02:37:26;;;;;;;7.30;6.40;;;2.50;99.90;;;;;;5013069;28;20623;-68
2023/11/30 02:39:52;;;;;;;6.87;5.20;;;2.50;99.90;;;;;;5013471;28;20423;-68
2023/11/30 02:42:19;;;;;;;8.80;6.00;;;2.60;99.90;;;;;;5013249;28;20579;-69
2023/11/30 02:44:45;;;;;;;9.03;5.63;;;2.50;99.90;;;;;;5013087;28;20164;-68
2023/11/30 02:47:10;;;;;;;5.37;4.60;;;2.50;99.90;;;;;;5012910;28;20787;-68
2023/11/30 02:49:36;;;;;;;5.50;5.00;;;2.50;99.90;;;;;;5012915;28;20682;-68
2023/11/30 02:52:01;;;;;;;5.03;4.57;;;2.50;99.90;;;;;;5012840;28;20282;-69
2023/11/30 02:54:27;;;;;;;4.60;4.30;;;2.50;99.90;;;;;;5013207;28;20191;-69
2023/11/30 02:56:53;;;;;;;7.77;5.50;;;2.40;99.90;;;;;;5012776;28;20917;-68
2023/11/30 02:59:18;;;;;;;7.33;6.17;;;2.40;99.90;;;;;;5012808;28;20172;-68
2023/11/30 03:01:48;;;;;;;6.10;5.50;;;2.50;99.90;;;;;;5012869;28;20172;-68
2023/11/30 03:04:14;;;;;;;7.13;5.17;;;2.60;99.90;;;;;;5013120;28;20251;-69
2023/11/30 03:06:40;;;;;;;5.93;5.33;;;2.60;99.90;;;;;;5015861;28;20929;-69
2023/11/30 03:09:07;;;;;;;5.90;5.13;;;2.50;99.90;;;;;;5016798;28;20250;-68
2023/11/30 03:11:32;;;;;;;6.83;5.67;;;2.50;99.90;;;;;;5016519;28;20953;-69
2023/11/30 03:13:58;;;;;;;5.97;5.33;;;2.50;99.90;;;;;;5016845;28;20546;-68
2023/11/30 03:16:24;;;;;;;6.50;5.07;;;2.50;99.90;;;;;;5016424;28;20647;-69
2023/11/30 03:18:50;;;;;;;7.60;6.20;;;2.50;99.90;;;;;;5016465;28;20171;-68
2023/11/30 03:21:16;;;;;;;6.00;4.87;;;2.50;99.90;;;;;;5016378;28;20431;-69
2023/11/30 03:23:42;;;;;;;6.50;4.43;;;2.50;99.90;;;;;;5016745;28;20176;-69
2023/11/30 03:26:08;;;;;;;7.63;5.30;;;2.50;99.90;;;;;;5015923;28;20976;-69
2023/11/30 03:28:33;;;;;;;4.53;4.13;;;2.50;99.90;;;;;;5016322;28;20654;-68
2023/11/30 03:30:59;;;;;;;7.17;5.87;;;2.40;99.90;;;;;;5016243;28;20275;-69
2023/11/30 03:33:24;;;;;;;6.70;5.60;;;2.40;99.90;;;;;;5015631;28;20291;-69
2023/11/30 03:35:51;;;;;;;6.20;5.03;;;2.40;99.90;;;;;;5016459;28;20171;-69
2023/11/30 03:38:20;;;;;;;6.10;5.60;;;2.40;99.90;;;;;;5016386;28;20168;-69
2023/11/30 03:40:45;;;;;;;7.83;5.33;;;2.40;99.90;;;;;;5016170;28;20491;-69
2023/11/30 03:43:11;;;;;;;7.30;5.67;;;2.30;99.90;;;;;;5014773;28;20414;-69
2023/11/30 03:45:36;;;;;;;7.33;6.60;;;2.40;99.90;;;;;;5016373;28;20250;-70
2023/11/30 03:48:02;;;;;;;7.00;5.73;;;2.40;99.90;;;;;;5015969;28;20179;-70
2023/11/30 03:50:27;;;;;;;5.87;4.80;;;2.50;99.90;;;;;;5015902;28;20282;-69
2023/11/30 03:52:53;;;;;;;5.70;5.10;;;2.50;99.90;;;;;;5016281;28;20282;-68
2023/11/30 03:55:19;;;;;;;7.30;6.60;;;2.60;99.90;;;;;;5015508;28;20222;-70
2023/11/30 03:57:44;;;;;;;7.07;6.33;;;2.60;99.90;;;;;;5016374;28;20195;-69
2023/11/30 04:00:16;;;;;;;6.83;6.07;;;2.60;99.90;;;;;;5016023;28;20415;-69
2023/11/30 04:02:42;;;;;;;7.10;5.50;;;2.60;99.90;;;;;;5014944;28;20148;-69
2023/11/30 04:05:10;;;;;;;6.80;5.50;;;2.60;99.90;;;;;;5016159;28;20771;-69
2023/11/30 04:07:37;;;;;;;5.23;4.67;;;2.70;99.90;;;;;;5015356;28;20415;-68
2023/11/30 04:10:03;;;;;;;8.03;6.00;;;2.70;99.90;;;;;;5015703;28;20960;-69
2023/11/30 04:12:28;;;;;;;5.60;5.00;;;2.70;99.90;;;;;;5015383;28;20447;-68
2023/11/30 04:14:54;;;;;;;7.00;6.40;;;2.70;99.90;;;;;;5015771;28;20401;-68
2023/11/30 04:17:20;;;;;;;7.00;6.30;;;2.60;99.90;;;;;;5014346;28;20170;-70
2023/11/30 04:19:46;;;;;;;7.03;6.07;;;2.60;99.90;;;;;;5015432;28;20556;-68
2023/11/30 04:22:11;;;;;;;5.93;4.97;;;2.60;99.90;;;;;;5015615;28;20407;-69
2023/11/30 04:24:37;;;;;;;6.20;5.37;;;2.70;99.90;;;;;;5015417;28;20168;-68
2023/11/30 04:27:03;;;;;;;5.80;5.30;;;2.60;99.90;;;;;;5015464;28;20168;-69
2023/11/30 04:29:28;;;;;;;6.97;6.37;;;2.60;99.90;;;;;;5015088;28;20215;-69
2023/11/30 04:31:54;;;;;;;6.63;4.93;;;2.70;99.90;;;;;;5015164;28;20200;-69
2023/11/30 04:34:19;;;;;;;8.47;6.53;;;2.60;99.90;;;;;;5015245;28;20259;-69
2023/11/30 04:36:45;;;;;;;7.07;6.40;;;2.70;99.90;;;;;;5015409;28;20187;-69
2023/11/30 04:39:11;;;;;;;6.70;6.00;;;2.80;99.90;;;;;;5015269;28;20173;-69
2023/11/30 04:41:40;;;;;;;6.40;5.80;;;2.80;99.90;;;;;;5015279;28;20403;-68
2023/11/30 04:44:05;;;;;;;6.27;5.60;;;3.00;99.90;;;;;;5015177;28;20407;-69
2023/11/30 04:46:31;;;;;;;6.73;5.93;;;3.00;99.90;;;;;;5014868;28;20438;-70
2023/11/30 04:48:58;;;;;;;6.07;5.50;;;3.00;99.90;;;;;;5014986;28;20168;-69
2023/11/30 04:51:24;;;;;;;7.03;5.80;;;2.90;99.90;;;;;;5014717;28;20246;-69
2023/11/30 04:53:50;;;;;;;7.97;6.70;;;3.00;99.90;;;;;;5015016;28;20415;-69
2023/11/30 04:56:16;;;;;;;6.37;5.77;;;3.00;99.90;;;;;;5014919;28;20415;-69
2023/11/30 04:58:41;;;;;;;8.67;6.40;;;2.90;99.90;;;;;;5014624;28;20171;-69
2023/11/30 05:01:07;;;;;;;7.23;6.07;;;2.90;99.90;;;;;;5014590;28;20315;-69
2023/11/30 05:03:32;;;;;;;7.23;6.50;;;2.90;99.90;;;;;;5014786;28;20183;-69
2023/11/30 05:05:58;;;;;;;6.03;5.43;;;2.90;99.90;;;;;;5014485;28;20172;-69
2023/11/30 05:08:24;;;;;;;7.10;6.40;;;2.90;99.90;;;;;;5014490;28;20168;-69
2023/11/30 05:10:49;;;;;;;8.23;6.00;;;2.90;99.90;;;;;;5014295;28;20732;-68
2023/11/30 05:13:15;;;;;;;6.10;5.00;;;2.90;99.90;;;;;;5014319;28;20204;-69
2023/11/30 05:15:40;;;;;;;7.60;5.53;;;2.90;99.90;;;;;;5014509;28;20175;-70
2023/11/30 05:18:06;;;;;;;5.97;5.37;;;2.80;99.90;;;;;;5014510;28;20183;-69
2023/11/30 05:20:33;;;;;;;7.70;6.50;;;2.80;99.90;;;;;;5014040;28;20282;-69
2023/11/30 05:23:00;;;;;;;7.03;6.30;;;2.80;99.90;;;;;;5014354;28;20460;-68
2023/11/30 05:25:26;;;;;;;7.27;6.57;;;2.60;99.90;;;;;;5014137;28;20428;-69
2023/11/30 05:27:52;;;;;;;7.30;6.60;;;2.60;99.90;;;;;;5013943;28;20407;-68
2023/11/30 05:30:17;;;;;;;8.13;6.80;;;2.50;99.90;;;;;;5011631;28;20497;-69
2023/11/30 05:32:43;;;;;;;8.93;6.87;;;2.40;99.90;;;;;;5012142;28;20250;-69
2023/11/30 05:35:09;;;;;;;6.43;5.83;;;2.50;99.90;;;;;;5014221;28;20172;-69
2023/11/30 05:37:34;;;;;;;7.53;6.83;;;2.50;99.90;;;;;;5014276;28;20183;-69
2023/11/30 05:40:00;;;;;;;8.90;8.07;;;2.50;99.90;;;;;;5013529;28;20751;-68
2023/11/30 05:42:27;;;;;;;8.63;7.73;;;2.60;99.90;;;;;;5014086;28;20185;-70
2023/11/30 05:44:53;;;;;;;8.40;7.07;;;2.60;99.90;;;;;;5014145;28;20168;-69
2023/11/30 05:47:21;;;;;;;9.13;8.17;;;2.60;99.90;;;;;;5013912;28;20410;-69
2023/11/30 05:49:46;;;;;;;7.57;6.87;;;2.70;99.90;;;;;;5013715;28;20219;-69
2023/11/30 05:52:13;;;;;;;8.17;7.37;;;2.60;99.90;;;;;;5013606;28;20482;-69
2023/11/30 05:54:38;;;;;;;7.30;6.57;;;2.60;99.90;;;;;;5013820;28;20222;-70
2023/11/30 05:57:04;;;;;;;8.77;7.87;;;2.80;99.90;;;;;;5013639;28;20431;-69
2023/11/30 05:59:29;;;;;;;8.47;7.57;;;2.90;99.90;;;;;;5013670;28;20693;-69
2023/11/30 06:01:55;;;;;;;10.83;8.03;;;3.00;99.90;;;;;;5014027;28;20211;-69
2023/11/30 06:04:21;;;;;;;8.63;7.80;;;3.00;99.90;;;;;;5013180;28;20172;-68
2023/11/30 06:06:46;;;;;;;8.70;7.80;;;3.10;99.90;;;;;;5012107;28;20172;-68
2023/11/30 06:09:14;;;;;;;9.70;7.43;;;3.10;99.90;;;;;;5013951;28;20168;-69
2023/11/30 06:11:40;;;;;;;8.67;7.80;;;3.10;99.90;;;;;;5013677;28;20204;-68
2023/11/30 06:14:06;;;;;;;9.00;8.10;;;3.20;99.90;;;;;;5013318;28;20702;-69
2023/11/30 06:16:31;;;;;;;8.20;7.30;;;3.20;99.90;;;;;;5013637;28;20652;-68
2023/11/30 06:18:57;;;;;;;8.67;7.77;;;3.20;99.90;;;;;;5013914;28;20171;-69
2023/11/30 06:21:22;;;;;;;8.07;7.27;;;3.20;99.90;;;;;;5013184;28;20212;-69
2023/11/30 06:23:48;;;;;;;9.67;7.47;;;3.20;99.90;;;;;;5013072;28;20176;-69
2023/11/30 06:26:14;;;;;;;7.47;6.73;;;3.20;99.90;;;;;;5013450;28;20231;-69
2023/11/30 06:28:40;;;;;;;8.30;7.50;;;3.20;99.90;;;;;;5013331;28;20243;-69
2023/11/30 06:31:07;;;;;;;10.13;7.97;;;3.10;99.90;;;;;;5012918;28;20238;-69
2023/11/30 06:33:32;;;;;;;10.37;8.60;;;3.10;99.90;;;;;;5013230;28;20414;-69
2023/11/30 06:35:58;;;;;;;9.20;8.30;;;3.00;99.90;;;;;;5013474;28;20449;-69
2023/11/30 06:38:23;;;;;;;12.90;9.60;;;3.00;99.90;;;;;;5013312;28;20172;-68
2023/11/30 06:40:49;;;;;;;9.77;8.87;;;3.00;99.90;;;;;;5016905;28;20626;-69
2023/11/30 06:43:14;;;;;;;8.90;8.00;;;3.10;99.90;;;;;;5019953;28;20187;-69
2023/11/30 06:45:40;;;;;;;10.50;9.50;;;3.10;99.90;;;;;;5019881;28;20180;-69
2023/11/30 06:48:06;;;;;;;9.20;8.30;;;3.00;99.90;;;;;;5020354;28;20183;-69
2023/11/30 06:50:31;;;;;;;9.30;8.50;;;3.00;99.90;;;;;;5019623;28;20612;-69
2023/11/30 06:52:57;;;;;;;10.70;9.50;;;2.90;99.90;;;;;;5019644;28;20206;-69
2023/11/30 06:55:22;;;;;;;11.70;9.67;;;2.90;99.90;;;;;;5019420;28;20172;-69
2023/11/30 06:57:48;;;;;;;8.80;8.00;;;2.90;99.90;;;;;;5019437;28;20258;-69
2023/11/30 07:00:14;;;;;;;9.93;8.83;;;2.90;99.90;;;;;;5019500;28;20215;-69
2023/11/30 07:02:39;;;;;;;10.30;8.03;;;2.90;99.90;;;;;;5019381;28;20650;-69
2023/11/30 07:05:05;;;;;;;8.87;8.07;;;2.90;99.90;;;;;;5019326;28;20435;-69
2023/11/30 07:07:34;;;;;;;10.30;8.20;;;3.00;99.90;;;;;;5019332;28;20230;-69
2023/11/30 07:10:00;;;;;;;9.83;8.83;;;3.00;99.90;;;;;;5019521;28;20790;-69
2023/11/30 07:12:25;;;;;;;9.07;8.27;;;3.10;99.90;;;;;;5018703;28;20438;-69
2023/11/30 07:14:51;;;;;;;10.27;9.23;;;3.20;99.90;;;;;;5019302;28;20210;-68
2023/11/30 07:17:17;;;;;;;10.23;9.13;;;3.20;99.90;;;;;;5019310;28;20168;-69
2023/11/30 07:19:42;;;;;;;12.20;7.73;;;3.20;99.90;;;;;;5019489;28;20191;-69
2023/11/30 07:22:08;;;;;;;9.10;8.20;;;3.20;99.90;;;;;;5019144;28;20194;-69
2023/11/30 07:24:34;;;;;;;8.90;8.03;;;3.20;99.90;;;;;;5019105;28;20635;-69
2023/11/30 07:26:59;;;;;;;10.43;9.40;;;3.20;99.90;;;;;;5019197;28;20657;-68
2023/11/30 07:29:25;;;;;;;9.60;8.60;;;3.20;99.90;;;;;;5018874;28;20639;-68
2023/11/30 07:31:52;;;;;;;10.23;8.87;;;3.20;99.90;;;;;;5018993;28;20465;-68
2023/11/30 07:34:17;;;;;;;10.80;8.47;;;3.30;99.90;;;;;;5017253;28;20176;-69
2023/11/30 07:36:43;;;;;;;10.43;9.33;;;3.30;99.90;;;;;;5001274;28;20916;-69
2023/11/30 07:39:09;;;;;;;14.20;12.20;;;3.30;99.90;;;;;;5001336;28;20172;-70
2023/11/30 07:41:35;;;;;;;22.00;14.93;;;3.40;99.90;;;;;;5018890;28;20188;-69
2023/11/30 07:44:02;;;;;;;14.87;11.80;;;3.40;99.90;;;;;;5017470;28;20222;-69
2023/11/30 07:46:28;;;;;;;12.60;9.10;;;3.30;99.90;;;;;;5018432;28;20411;-69
2023/11/30 07:48:54;;;;;;;10.53;8.53;;;3.40;99.90;;;;;;5017896;28;20784;-69
2023/11/30 07:51:22;;;;;;;13.07;8.93;;;3.40;99.90;;;;;;5016789;28;20446;-68
2023/11/30 07:53:48;;;;;;;10.77;9.67;;;3.50;99.90;;;;;;5014484;28;20791;-69
2023/11/30 07:56:13;;;;;;;10.80;9.80;;;3.50;99.90;;;;;;4997825;28;20490;-70
2023/11/30 07:58:40;;;;;;;11.23;8.40;;;3.50;99.90;;;;;;5014822;28;20507;-70
2023/11/30 08:01:06;;;;;;;10.10;8.67;;;3.50;99.90;;;;;;5014552;28;20218;-69
2023/11/30 08:03:32;;;;;;;8.40;7.60;;;3.50;99.90;;;;;;4997983;28;20425;-69
2023/11/30 08:05:58;;;;;;;8.13;7.43;;;3.60;99.90;;;;;;5014557;28;20486;-70
2023/11/30 08:08:24;;;;;;;9.07;8.07;;;3.70;99.90;;;;;;5014262;28;20225;-70
2023/11/30 08:10:49;;;;;;;10.30;9.20;;;3.80;99.90;;;;;;5014461;28;20200;-68
2023/11/30 08:13:16;;;;;;;12.03;9.90;;;3.90;99.90;;;;;;5015524;28;20215;-70
2023/11/30 08:15:42;;;;;;;10.43;8.60;;;3.90;99.90;;;;;;4997772;28;20419;-69
2023/11/30 08:18:08;;;;;;;11.33;9.50;;;4.00;99.90;;;;;;4997904;28;20418;-70
2023/11/30 08:20:35;;;;;;;11.20;10.10;;;4.10;99.90;;;;;;5015466;28;20451;-69
2023/11/30 08:23:02;;;;;;;11.60;8.80;;;4.20;99.90;;;;;;5015318;28;20406;-69
2023/11/30 08:25:28;;;;;;;10.50;8.83;;;4.30;99.90;;;;;;5013937;28;20459;-69
2023/11/30 08:27:53;;;;;;;10.53;9.43;;;4.20;99.90;;;;;;4997725;28;20451;-69
2023/11/30 08:30:19;;;;;;;11.33;9.50;;;4.30;99.90;;;;;;5013842;28;20837;-69
2023/11/30 08:32:45;;;;;;;11.10;10.00;;;4.10;99.90;;;;;;5015260;28;20212;-69
2023/11/30 08:35:11;;;;;;;11.13;10.00;;;4.20;99.90;;;;;;5015204;28;20306;-69
2023/11/30 08:37:37;;;;;;;11.57;10.37;;;4.30;99.90;;;;;;5013687;28;20183;-68
2023/11/30 08:40:04;;;;;;;11.40;10.07;;;4.30;99.90;;;;;;4997758;28;20489;-68
2023/11/30 08:42:30;;;;;;;14.60;11.13;;;4.30;99.90;;;;;;5013973;28;20265;-68
2023/11/30 08:44:55;;;;;;;11.30;9.13;;;4.30;99.90;;;;;;5015137;28;20458;-68
2023/11/30 08:47:24;;;;;;;11.30;9.83;;;4.30;99.90;;;;;;5013569;28;20714;-69
2023/11/30 08:49:50;;;;;;;12.07;10.87;;;4.50;99.90;;;;;;4997406;28;20196;-69
2023/11/30 08:52:15;;;;;;;12.13;10.93;;;4.50;99.90;;;;;;5013615;28;20465;-69
2023/11/30 08:54:41;;;;;;;11.37;9.70;;;4.60;99.90;;;;;;4997353;28;20179;-69
2023/11/30 08:57:07;;;;;;;11.50;10.30;;;4.50;99.90;;;;;;5013329;28;20245;-69
2023/11/30 08:59:33;;;;;;;12.13;10.70;;;4.60;99.90;;;;;;4997099;28;20195;-69
2023/11/30 09:01:59;;;;;;;12.07;9.97;;;4.70;99.90;;;;;;5014824;28;20430;-68
2023/11/30 09:04:24;;;;;;;12.07;10.07;;;4.60;99.90;;;;;;5012758;28;20176;-68
2023/11/30 09:06:50;;;;;;;14.93;11.40;;;4.70;99.90;;;;;;4996921;28;20226;-68
2023/11/30 09:09:15;;;;;;;13.37;11.93;;;5.00;99.90;;;;;;5013932;28;20303;-69
2023/11/30 09:11:44;;;;;;;11.67;9.17;;;5.10;99.90;;;;;;5013058;28;20725;-67
2023/11/30 09:14:10;;;;;;;12.27;10.77;;;5.00;99.90;;;;;;5013335;28;20172;-68
2023/11/30 09:16:36;;;;;;;13.07;10.40;;;5.00;99.90;;;;;;5014414;28;20932;-68
2023/11/30 09:19:05;;;;;;;11.73;10.23;;;4.90;99.90;;;;;;5014582;28;20179;-70
2023/11/30 09:21:31;;;;;;;10.43;9.10;;;5.10;99.90;;;;;;4997031;28;20443;-70
2023/11/30 09:23:58;;;;;;;13.00;10.93;;;5.20;99.90;;;;;;5013255;28;20403;-68
2023/11/30 09:26:24;;;;;;;13.23;10.77;;;5.40;99.90;;;;;;5012963;28;20168;-67
2023/11/30 09:28:50;;;;;;;10.43;9.33;;;5.30;99.90;;;;;;5014098;28;20422;-68
2023/11/30 09:31:16;;;;;;;14.03;11.20;;;5.30;99.90;;;;;;4996194;28;20451;-69
2023/11/30 09:33:42;;;;;;;12.53;11.23;;;5.30;99.90;;;;;;5013952;28;20522;-69
2023/11/30 09:36:08;;;;;;;11.97;10.33;;;5.20;99.90;;;;;;5013709;28;20172;-68
2023/11/30 09:38:33;;;;;;;11.50;10.40;;;5.20;99.90;;;;;;5012634;28;20415;-69
2023/11/30 09:41:07;;;;;;;12.20;10.90;;;5.20;99.90;;;;;;5013675;28;20434;-69
2023/11/30 09:43:33;;;;;;;12.20;10.80;;;5.30;99.90;;;;;;5014047;28;20157;-69
2023/11/30 09:45:59;;;;;;;13.90;10.47;;;5.40;99.90;;;;;;4996263;28;20433;-69
2023/11/30 09:48:24;;;;;;;12.13;10.80;;;5.50;99.90;;;;;;4995773;28;20435;-69
2023/11/30 09:50:50;;;;;;;13.37;10.63;;;5.60;99.90;;;;;;5012771;28;20283;-68
2023/11/30 09:53:16;;;;;;;11.70;10.30;;;5.70;99.90;;;;;;5013877;28;20206;-69
2023/11/30 09:55:42;;;;;;;12.30;9.90;;;5.80;99.90;;;;;;4996023;28;20186;-69
2023/11/30 09:58:08;;;;;;;10.57;9.57;;;5.80;99.90;;;;;;5012321;28;20191;-69
2023/11/30 10:00:34;;;;;;;14.40;10.57;;;5.70;99.90;;;;;;5012394;28;20801;-69
2023/11/30 10:03:00;;;;;;;11.43;10.30;;;5.70;99.90;;;;;;5012188;28;20238;-69
2023/11/30 10:05:28;;;;;;;10.50;9.43;;;5.80;99.90;;;;;;5013709;28;20426;-69
2023/11/30 10:07:54;;;;;;;11.80;10.60;;;5.80;99.90;;;;;;5012188;28;20415;-69
2023/11/30 10:10:20;;;;;;;13.73;12.30;;;5.70;99.90;;;;;;5012118;28;20536;-69
2023/11/30 10:12:45;;;;;;;14.90;11.93;;;5.70;99.90;;;;;;4996313;28;20446;-68
2023/11/30 10:15:11;;;;;;;10.83;9.73;;;5.60;99.90;;;;;;5005857;28;20176;-68
2023/11/30 10:17:37;;;;;;;12.63;11.33;;;5.50;99.90;;;;;;5012102;28;20171;-69
2023/11/30 10:20:05;;;;;;;12.30;11.00;;;5.50;99.90;;;;;;4996557;28;20202;-69
2023/11/30 10:22:31;;;;;;;16.23;10.80;;;5.60;99.90;;;;;;5013422;28;20789;-69
2023/11/30 10:24:57;;;;;;;10.83;9.73;;;5.70;99.90;;;;;;5013332;28;20426;-70
2023/11/30 10:27:24;;;;;;;11.73;10.53;;;5.90;99.90;;;;;;5012070;28;20988;-68
2023/11/30 10:29:54;;;;;;;11.57;10.37;;;5.70;99.90;;;;;;4995544;28;20239;-67
2023/11/30 10:32:22;;;;;;;11.70;10.50;;;5.60;99.90;;;;;;5011897;28;20451;-69
2023/11/30 10:34:49;;;;;;;11.23;9.87;;;5.50;99.90;;;;;;5011635;28;20403;-69
2023/11/30 10:37:19;;;;;;;12.50;11.00;;;5.50;99.90;;;;;;5013233;28;20785;-69
2023/11/30 10:39:59;;;;;;;10.67;9.57;;;5.40;99.90;;;;;;4995332;28;20945;-69
2023/11/30 10:42:26;;;;;;;11.67;10.47;;;5.30;99.90;;;;;;5013334;28;20407;-68
2023/11/30 10:44:53;;;;;;;10.50;9.40;;;5.60;99.90;;;;;;5013349;28;20477;-68
2023/11/30 10:47:19;;;;;;;10.80;9.70;;;5.90;99.90;;;;;;5013095;28;20502;-69
2023/11/30 10:49:48;;;;;;;11.87;10.03;;;6.30;99.90;;;;;;5012917;28;20467;-69
2023/11/30 10:52:15;;;;;;;12.33;10.37;;;6.70;99.90;;;;;;4995811;28;20616;-69
2023/11/30 10:54:54;;;;;;;12.30;11.10;;;6.80;99.90;;;;;;5011609;28;20413;-69
2023/11/30 10:57:21;;;;;;;12.07;10.73;;;6.80;99.90;;;;;;5013233;28;20487;-69
2023/11/30 10:59:49;;;;;;;13.70;12.30;;;6.80;99.90;;;;;;4994756;28;20537;-68
2023/11/30 11:02:15;;;;;;;12.73;10.80;;;6.60;99.90;;;;;;5013126;28;20439;-68
2023/11/30 11:04:41;;;;;;;12.80;11.47;;;6.60;99.90;;;;;;4995075;28;20419;-68
2023/11/30 11:07:12;;;;;;;12.10;9.90;;;6.70;99.90;;;;;;5012777;28;20415;-69
2023/11/30 11:09:42;;;;;;;12.13;10.83;;;7.00;99.90;;;;;;5011468;28;20443;-69
2023/11/30 11:12:21;;;;;;;10.43;9.43;;;7.10;99.90;;;;;;4995312;28;20455;-68
2023/11/30 11:14:48;;;;;;;10.70;9.60;;;6.90;99.90;;;;;;5011383;28;20407;-68
2023/11/30 11:17:14;;;;;;;11.90;10.80;;;7.00;99.90;;;;;;5012793;28;20504;-69
2023/11/30 11:19:42;;;;;;;11.07;9.97;;;7.10;99.90;;;;;;5012692;28;20428;-68
2023/11/30 11:22:21;;;;;;;12.63;10.40;;;7.10;99.90;;;;;;4995244;28;20435;-69
2023/11/30 11:24:48;;;;;;;11.90;10.50;;;7.10;99.90;;;;;;5012984;28;20442;-69
2023/11/30 11:27:27;;;;;;;9.97;8.97;;;7.20;99.90;;;;;;4997496;28;20423;-69
2023/11/30 11:29:55;;;;;;;13.23;10.30;;;7.20;99.90;;;;;;5016470;28;20533;-68
2023/11/30 11:32:22;;;;;;;12.10;10.90;;;7.10;99.90;;;;;;5014947;28;20452;-69
2023/11/30 11:34:48;;;;;;;11.57;9.87;;;6.90;99.90;;;;;;5014821;28;20482;-68
2023/11/30 11:37:13;;;;;;;11.37;9.97;;;7.00;99.90;;;;;;5016078;28;20401;-70
2023/11/30 11:39:41;;;;;;;12.10;10.67;;;7.00;99.90;;;;;;5014485;28;20682;-69
2023/11/30 11:42:07;;;;;;;12.40;10.80;;;7.10;99.90;;;;;;5014557;28;20173;-69
2023/11/30 11:44:33;;;;;;;11.63;10.30;;;7.10;99.90;;;;;;5015986;28;20408;-68
2023/11/30 11:46:59;;;;;;;11.00;9.90;;;7.20;99.90;;;;;;4998460;28;20492;-68
2023/11/30 11:49:25;;;;;;;11.53;10.37;;;7.10;99.90;;;;;;5015924;28;20408;-69
2023/11/30 11:51:50;;;;;;;11.80;9.53;;;6.80;99.90;;;;;;5014503;28;20204;-68
2023/11/30 11:54:20;;;;;;;12.67;11.37;;;6.80;99.90;;;;;;5014880;28;20172;-69
2023/11/30 11:56:47;;;;;;;11.43;10.30;;;6.80;99.90;;;;;;5016189;28;20550;-68
2023/11/30 11:59:17;;;;;;;12.50;11.30;;;6.80;99.90;;;;;;5015463;28;20404;-69
2023/11/30 12:01:43;;;;;;;10.50;9.50;;;6.90;99.90;;;;;;4998265;28;20417;-69
2023/11/30 12:04:08;;;;;;;11.50;10.40;;;6.80;99.90;;;;;;4998365;28;20764;-70
2023/11/30 12:06:34;;;;;;;10.60;9.63;;;6.80;99.90;;;;;;5015875;28;20183;-68
2023/11/30 12:09:12;;;;;;;11.30;9.37;;;6.80;99.90;;;;;;5015782;28;20635;-69
2023/11/30 12:11:37;;;;;;;9.80;8.90;;;6.90;99.90;;;;;;5014296;28;20227;-70
2023/11/30 12:14:05;;;;;;;12.70;10.37;;;7.00;99.90;;;;;;5014195;28;20924;-69
2023/11/30 12:16:33;;;;;;;10.73;9.63;;;6.80;99.90;;;;;;4998204;28;20172;-67
2023/11/30 12:18:58;;;;;;;11.93;10.60;;;6.70;99.90;;;;;;4998225;28;20500;-69
2023/11/30 12:21:24;;;;;;;11.53;10.33;;;6.70;99.90;;;;;;5015557;28;20980;-69
2023/11/30 12:23:49;;;;;;;10.80;9.73;;;6.70;99.90;;;;;;5014140;28;20169;-69
2023/11/30 12:26:15;;;;;;;10.43;8.90;;;6.70;99.90;;;;;;5014140;28;20180;-69
2023/11/30 12:28:41;;;;;;;10.63;9.63;;;6.90;99.90;;;;;;5013977;28;20217;-69
2023/11/30 12:31:07;;;;;;;10.47;9.37;;;6.90;99.90;;;;;;5013801;28;20295;-69
2023/11/30 12:33:32;;;;;;;11.47;10.27;;;6.90;99.90;;;;;;5015119;28;20231;-70
2023/11/30 12:35:58;;;;;;;10.40;8.73;;;7.00;99.90;;;;;;5014177;28;20436;-69
2023/11/30 12:38:25;;;;;;;11.10;9.37;;;7.00;99.90;;;;;;5013142;28;20179;-69
2023/11/30 12:40:51;;;;;;;11.13;9.20;;;7.10;99.90;;;;;;5013905;28;20199;-69
2023/11/30 12:43:17;;;;;;;8.90;8.00;;;7.10;99.90;;;;;;4997305;28;20420;-69
2023/11/30 12:45:43;;;;;;;9.90;8.20;;;7.10;99.90;;;;;;5013865;28;20412;-69